sensor_id;sensor_type;location;lat;lon;timestamp;P1;durP1;ratioP1;P2;durP2;ratioP2
20415;SDS011;10367;52.202;5.996;2023-02-15T00:01:30;59.97;;;28.40;;
20415;SDS011;10367;52.202;5.996;2023-02-15T00:03:59;60.13;;;26.87;;
20415;SDS011;10367;52.202;5.996;2023-02-15T00:06:27;57.03;;;27.23;;
20415;SDS011;10367;52.202;5.996;2023-02-15T00:08:58;58.53;;;28.33;;
20415;SDS011;10367;52.202;5.996;2023-02-15T00:11:26;55.97;;;26.37;;
20415;SDS011;10367;52.202;5.996;2023-02-15T00:14:07;60.67;;;26.47;;
20415;SDS011;10367;52.202;5.996;2023-02-15T00:16:39;60.50;;;27.57;;
20415;SDS011;10367;52.202;5.996;2023-02-15T00:19:11;56.90;;;26.03;;
20415;SDS011;10367;52.202;5.996;2023-02-15T00:21:40;53.73;;;24.87;;
20415;SDS011;10367;52.202;5.996;2023-02-15T00:24:10;53.13;;;24.47;;
20415;SDS011;10367;52.202;5.996;2023-02-15T00:26:40;50.47;;;23.13;;
20415;SDS011;10367;52.202;5.996;2023-02-15T00:29:10;69.40;;;25.50;;
20415;SDS011;10367;52.202;5.996;2023-02-15T00:31:41;52.23;;;24.60;;
20415;SDS011;10367;52.202;5.996;2023-02-15T00:34:10;51.73;;;25.37;;
20415;SDS011;10367;52.202;5.996;2023-02-15T00:36:40;58.37;;;25.07;;
20415;SDS011;10367;52.202;5.996;2023-02-15T00:39:09;54.20;;;25.47;;
20415;SDS011;10367;52.202;5.996;2023-02-15T00:41:39;47.10;;;23.33;;
20415;SDS011;10367;52.202;5.996;2023-02-15T00:44:08;56.30;;;25.13;;
20415;SDS011;10367;52.202;5.996;2023-02-15T00:46:37;52.07;;;24.80;;
20415;SDS011;10367;52.202;5.996;2023-02-15T00:49:07;61.17;;;26.73;;
20415;SDS011;10367;52.202;5.996;2023-02-15T00:51:37;42.50;;;19.97;;
20415;SDS011;10367;52.202;5.996;2023-02-15T00:54:06;51.63;;;24.07;;
20415;SDS011;10367;52.202;5.996;2023-02-15T00:56:35;49.47;;;23.67;;
20415;SDS011;10367;52.202;5.996;2023-02-15T00:59:04;49.03;;;24.40;;
20415;SDS011;10367;52.202;5.996;2023-02-15T01:01:33;49.37;;;24.23;;
20415;SDS011;10367;52.202;5.996;2023-02-15T01:04:02;50.00;;;23.33;;
20415;SDS011;10367;52.202;5.996;2023-02-15T01:06:33;50.87;;;22.87;;
20415;SDS011;10367;52.202;5.996;2023-02-15T01:09:01;58.13;;;25.07;;
20415;SDS011;10367;52.202;5.996;2023-02-15T01:11:30;60.37;;;25.80;;
20415;SDS011;10367;52.202;5.996;2023-02-15T01:13:59;50.60;;;24.30;;
20415;SDS011;10367;52.202;5.996;2023-02-15T01:16:29;51.77;;;24.97;;
20415;SDS011;10367;52.202;5.996;2023-02-15T01:19:00;48.07;;;23.33;;
20415;SDS011;10367;52.202;5.996;2023-02-15T01:21:30;47.13;;;22.20;;
20415;SDS011;10367;52.202;5.996;2023-02-15T01:24:02;57.00;;;24.77;;
20415;SDS011;10367;52.202;5.996;2023-02-15T01:26:31;45.97;;;20.03;;
20415;SDS011;10367;52.202;5.996;2023-02-15T01:29:00;54.57;;;24.70;;
20415;SDS011;10367;52.202;5.996;2023-02-15T01:31:29;47.47;;;22.60;;
20415;SDS011;10367;52.202;5.996;2023-02-15T01:33:58;51.63;;;23.60;;
20415;SDS011;10367;52.202;5.996;2023-02-15T01:36:26;50.33;;;23.43;;
20415;SDS011;10367;52.202;5.996;2023-02-15T01:38:55;53.27;;;24.30;;
20415;SDS011;10367;52.202;5.996;2023-02-15T01:41:25;53.10;;;22.90;;
20415;SDS011;10367;52.202;5.996;2023-02-15T01:43:55;51.73;;;24.37;;
20415;SDS011;10367;52.202;5.996;2023-02-15T01:46:26;57.23;;;24.10;;
20415;SDS011;10367;52.202;5.996;2023-02-15T01:49:00;47.80;;;22.77;;
20415;SDS011;10367;52.202;5.996;2023-02-15T01:51:38;48.17;;;22.53;;
20415;SDS011;10367;52.202;5.996;2023-02-15T01:54:09;50.57;;;23.73;;
20415;SDS011;10367;52.202;5.996;2023-02-15T01:56:47;55.33;;;22.73;;
20415;SDS011;10367;52.202;5.996;2023-02-15T01:59:18;51.13;;;23.23;;
20415;SDS011;10367;52.202;5.996;2023-02-15T02:01:49;51.63;;;22.03;;
20415;SDS011;10367;52.202;5.996;2023-02-15T02:04:22;51.00;;;22.30;;
20415;SDS011;10367;52.202;5.996;2023-02-15T02:06:57;47.67;;;21.13;;
20415;SDS011;10367;52.202;5.996;2023-02-15T02:09:27;43.80;;;20.40;;
20415;SDS011;10367;52.202;5.996;2023-02-15T02:11:58;46.33;;;20.87;;
20415;SDS011;10367;52.202;5.996;2023-02-15T02:14:28;47.03;;;22.83;;
20415;SDS011;10367;52.202;5.996;2023-02-15T02:16:58;40.90;;;19.20;;
20415;SDS011;10367;52.202;5.996;2023-02-15T02:19:54;51.53;;;20.40;;
20415;SDS011;10367;52.202;5.996;2023-02-15T02:25:50;46.87;;;20.17;;
20415;SDS011;10367;52.202;5.996;2023-02-15T02:31:43;42.60;;;19.53;;
20415;SDS011;10367;52.202;5.996;2023-02-15T02:34:30;43.57;;;18.77;;
20415;SDS011;10367;52.202;5.996;2023-02-15T02:37:03;51.27;;;19.17;;
20415;SDS011;10367;52.202;5.996;2023-02-15T02:39:42;44.43;;;21.03;;
20415;SDS011;10367;52.202;5.996;2023-02-15T02:42:18;48.33;;;21.77;;
20415;SDS011;10367;52.202;5.996;2023-02-15T02:44:58;45.37;;;19.20;;
20415;SDS011;10367;52.202;5.996;2023-02-15T02:47:32;50.00;;;19.93;;
20415;SDS011;10367;52.202;5.996;2023-02-15T02:50:08;39.47;;;16.33;;
20415;SDS011;10367;52.202;5.996;2023-02-15T02:52:41;49.47;;;20.33;;
20415;SDS011;10367;52.202;5.996;2023-02-15T02:55:12;51.23;;;20.67;;
20415;SDS011;10367;52.202;5.996;2023-02-15T02:57:47;42.03;;;18.90;;
20415;SDS011;10367;52.202;5.996;2023-02-15T03:00:21;57.27;;;22.17;;
20415;SDS011;10367;52.202;5.996;2023-02-15T03:02:54;41.77;;;18.57;;
20415;SDS011;10367;52.202;5.996;2023-02-15T03:05:33;44.23;;;19.57;;
20415;SDS011;10367;52.202;5.996;2023-02-15T03:08:06;47.53;;;19.60;;
20415;SDS011;10367;52.202;5.996;2023-02-15T03:10:37;47.53;;;19.80;;
20415;SDS011;10367;52.202;5.996;2023-02-15T03:13:07;43.17;;;18.90;;
20415;SDS011;10367;52.202;5.996;2023-02-15T03:15:37;46.70;;;18.63;;
20415;SDS011;10367;52.202;5.996;2023-02-15T03:18:28;46.13;;;18.53;;
20415;SDS011;10367;52.202;5.996;2023-02-15T03:21:04;45.20;;;18.83;;
20415;SDS011;10367;52.202;5.996;2023-02-15T03:23:35;40.90;;;18.53;;
20415;SDS011;10367;52.202;5.996;2023-02-15T03:26:06;42.40;;;19.27;;
20415;SDS011;10367;52.202;5.996;2023-02-15T03:28:38;46.07;;;19.67;;
20415;SDS011;10367;52.202;5.996;2023-02-15T03:31:10;41.87;;;17.90;;
20415;SDS011;10367;52.202;5.996;2023-02-15T03:33:42;39.37;;;17.97;;
20415;SDS011;10367;52.202;5.996;2023-02-15T03:36:18;49.17;;;20.63;;
20415;SDS011;10367;52.202;5.996;2023-02-15T03:38:52;40.70;;;17.83;;
20415;SDS011;10367;52.202;5.996;2023-02-15T03:41:26;49.77;;;20.83;;
20415;SDS011;10367;52.202;5.996;2023-02-15T03:43:59;40.83;;;17.83;;
20415;SDS011;10367;52.202;5.996;2023-02-15T03:46:34;43.37;;;18.73;;
20415;SDS011;10367;52.202;5.996;2023-02-15T03:49:12;50.77;;;19.83;;
20415;SDS011;10367;52.202;5.996;2023-02-15T03:51:47;44.47;;;19.17;;
20415;SDS011;10367;52.202;5.996;2023-02-15T03:54:19;47.10;;;19.87;;
20415;SDS011;10367;52.202;5.996;2023-02-15T03:57:14;42.63;;;18.23;;
20415;SDS011;10367;52.202;5.996;2023-02-15T04:00:03;46.10;;;19.40;;
20415;SDS011;10367;52.202;5.996;2023-02-15T04:05:47;41.57;;;17.67;;
20415;SDS011;10367;52.202;5.996;2023-02-15T04:08:18;40.33;;;18.63;;
20415;SDS011;10367;52.202;5.996;2023-02-15T04:10:47;46.53;;;18.83;;
20415;SDS011;10367;52.202;5.996;2023-02-15T04:13:22;42.27;;;17.70;;
20415;SDS011;10367;52.202;5.996;2023-02-15T04:15:53;41.37;;;17.67;;
20415;SDS011;10367;52.202;5.996;2023-02-15T04:18:31;52.07;;;19.73;;
20415;SDS011;10367;52.202;5.996;2023-02-15T04:21:19;41.87;;;18.17;;
20415;SDS011;10367;52.202;5.996;2023-02-15T04:24:08;39.30;;;17.13;;
20415;SDS011;10367;52.202;5.996;2023-02-15T04:26:55;45.13;;;16.70;;
20415;SDS011;10367;52.202;5.996;2023-02-15T04:29:24;43.73;;;17.87;;
20415;SDS011;10367;52.202;5.996;2023-02-15T04:31:55;48.10;;;19.43;;
20415;SDS011;10367;52.202;5.996;2023-02-15T04:34:25;47.30;;;18.10;;
20415;SDS011;10367;52.202;5.996;2023-02-15T04:36:54;34.30;;;12.33;;
20415;SDS011;10367;52.202;5.996;2023-02-15T04:39:24;43.33;;;18.47;;
20415;SDS011;10367;52.202;5.996;2023-02-15T04:41:53;39.00;;;16.00;;
20415;SDS011;10367;52.202;5.996;2023-02-15T04:44:22;50.27;;;19.43;;
20415;SDS011;10367;52.202;5.996;2023-02-15T04:46:50;33.13;;;14.67;;
20415;SDS011;10367;52.202;5.996;2023-02-15T04:49:19;43.97;;;17.83;;
20415;SDS011;10367;52.202;5.996;2023-02-15T04:51:48;42.97;;;16.80;;
20415;SDS011;10367;52.202;5.996;2023-02-15T04:54:16;48.13;;;18.87;;
20415;SDS011;10367;52.202;5.996;2023-02-15T04:56:47;47.57;;;18.63;;
20415;SDS011;10367;52.202;5.996;2023-02-15T04:59:16;52.33;;;17.73;;
20415;SDS011;10367;52.202;5.996;2023-02-15T05:01:45;39.87;;;17.33;;
20415;SDS011;10367;52.202;5.996;2023-02-15T05:04:14;44.70;;;17.50;;
20415;SDS011;10367;52.202;5.996;2023-02-15T05:06:43;40.97;;;16.67;;
20415;SDS011;10367;52.202;5.996;2023-02-15T05:09:12;40.97;;;18.47;;
20415;SDS011;10367;52.202;5.996;2023-02-15T05:11:41;41.03;;;15.87;;
20415;SDS011;10367;52.202;5.996;2023-02-15T05:14:11;43.23;;;17.33;;
20415;SDS011;10367;52.202;5.996;2023-02-15T05:16:40;40.83;;;16.80;;
20415;SDS011;10367;52.202;5.996;2023-02-15T05:19:09;44.97;;;18.43;;
20415;SDS011;10367;52.202;5.996;2023-02-15T05:21:38;39.60;;;17.00;;
20415;SDS011;10367;52.202;5.996;2023-02-15T05:24:07;52.03;;;18.63;;
20415;SDS011;10367;52.202;5.996;2023-02-15T05:26:49;42.37;;;16.67;;
20415;SDS011;10367;52.202;5.996;2023-02-15T05:29:38;38.60;;;16.53;;
20415;SDS011;10367;52.202;5.996;2023-02-15T05:32:07;36.73;;;15.73;;
20415;SDS011;10367;52.202;5.996;2023-02-15T05:34:36;52.60;;;19.30;;
20415;SDS011;10367;52.202;5.996;2023-02-15T05:37:05;40.50;;;17.37;;
20415;SDS011;10367;52.202;5.996;2023-02-15T05:39:34;51.50;;;17.43;;
20415;SDS011;10367;52.202;5.996;2023-02-15T05:42:03;48.37;;;17.40;;
20415;SDS011;10367;52.202;5.996;2023-02-15T05:44:34;47.03;;;17.53;;
20415;SDS011;10367;52.202;5.996;2023-02-15T05:47:04;42.13;;;17.53;;
20415;SDS011;10367;52.202;5.996;2023-02-15T05:49:34;41.73;;;16.40;;
20415;SDS011;10367;52.202;5.996;2023-02-15T05:52:03;49.40;;;17.50;;
20415;SDS011;10367;52.202;5.996;2023-02-15T05:54:32;50.93;;;18.10;;
20415;SDS011;10367;52.202;5.996;2023-02-15T05:57:00;29.33;;;13.47;;
20415;SDS011;10367;52.202;5.996;2023-02-15T05:59:29;38.50;;;16.37;;
20415;SDS011;10367;52.202;5.996;2023-02-15T06:01:58;49.20;;;17.10;;
20415;SDS011;10367;52.202;5.996;2023-02-15T06:04:29;48.60;;;18.23;;
20415;SDS011;10367;52.202;5.996;2023-02-15T06:06:57;35.60;;;16.30;;
20415;SDS011;10367;52.202;5.996;2023-02-15T06:09:26;39.47;;;16.63;;
20415;SDS011;10367;52.202;5.996;2023-02-15T06:11:55;39.77;;;15.73;;
20415;SDS011;10367;52.202;5.996;2023-02-15T06:14:24;51.07;;;18.43;;
20415;SDS011;10367;52.202;5.996;2023-02-15T06:16:53;34.67;;;14.57;;
20415;SDS011;10367;52.202;5.996;2023-02-15T06:19:22;55.83;;;18.30;;
20415;SDS011;10367;52.202;5.996;2023-02-15T06:21:52;59.67;;;18.83;;
20415;SDS011;10367;52.202;5.996;2023-02-15T06:24:20;51.83;;;18.57;;
20415;SDS011;10367;52.202;5.996;2023-02-15T06:26:49;38.33;;;16.57;;
20415;SDS011;10367;52.202;5.996;2023-02-15T06:29:18;49.80;;;17.70;;
20415;SDS011;10367;52.202;5.996;2023-02-15T06:31:46;40.60;;;16.27;;
20415;SDS011;10367;52.202;5.996;2023-02-15T06:34:16;43.43;;;15.73;;
20415;SDS011;10367;52.202;5.996;2023-02-15T06:36:47;37.87;;;16.60;;
20415;SDS011;10367;52.202;5.996;2023-02-15T06:39:18;40.73;;;17.20;;
20415;SDS011;10367;52.202;5.996;2023-02-15T06:41:46;37.43;;;17.37;;
20415;SDS011;10367;52.202;5.996;2023-02-15T06:44:15;42.70;;;17.10;;
20415;SDS011;10367;52.202;5.996;2023-02-15T06:46:44;45.97;;;16.27;;
20415;SDS011;10367;52.202;5.996;2023-02-15T06:49:13;32.83;;;13.27;;
20415;SDS011;10367;52.202;5.996;2023-02-15T06:51:41;32.07;;;13.90;;
20415;SDS011;10367;52.202;5.996;2023-02-15T06:54:10;40.07;;;16.13;;
20415;SDS011;10367;52.202;5.996;2023-02-15T06:56:40;21.27;;;9.93;;
20415;SDS011;10367;52.202;5.996;2023-02-15T06:59:10;42.83;;;17.47;;
20415;SDS011;10367;52.202;5.996;2023-02-15T07:01:39;38.40;;;16.67;;
20415;SDS011;10367;52.202;5.996;2023-02-15T07:04:07;44.80;;;18.00;;
20415;SDS011;10367;52.202;5.996;2023-02-15T07:06:36;55.47;;;20.23;;
20415;SDS011;10367;52.202;5.996;2023-02-15T07:09:05;54.17;;;18.83;;
20415;SDS011;10367;52.202;5.996;2023-02-15T07:11:33;56.17;;;21.47;;
20415;SDS011;10367;52.202;5.996;2023-02-15T07:14:21;51.77;;;20.20;;
20415;SDS011;10367;52.202;5.996;2023-02-15T07:16:50;53.50;;;19.33;;
20415;SDS011;10367;52.202;5.996;2023-02-15T07:19:19;33.57;;;15.80;;
20415;SDS011;10367;52.202;5.996;2023-02-15T07:21:48;42.10;;;17.33;;
20415;SDS011;10367;52.202;5.996;2023-02-15T07:24:17;38.93;;;16.43;;
20415;SDS011;10367;52.202;5.996;2023-02-15T07:26:48;41.30;;;17.03;;
20415;SDS011;10367;52.202;5.996;2023-02-15T07:29:17;41.90;;;16.93;;
20415;SDS011;10367;52.202;5.996;2023-02-15T07:31:48;50.27;;;19.03;;
20415;SDS011;10367;52.202;5.996;2023-02-15T07:34:16;41.10;;;18.13;;
20415;SDS011;10367;52.202;5.996;2023-02-15T07:36:45;39.93;;;16.40;;
20415;SDS011;10367;52.202;5.996;2023-02-15T07:39:14;49.07;;;17.90;;
20415;SDS011;10367;52.202;5.996;2023-02-15T07:41:43;40.13;;;16.87;;
20415;SDS011;10367;52.202;5.996;2023-02-15T07:44:12;42.17;;;17.40;;
20415;SDS011;10367;52.202;5.996;2023-02-15T07:46:41;43.20;;;15.97;;
20415;SDS011;10367;52.202;5.996;2023-02-15T07:49:11;40.80;;;17.47;;
20415;SDS011;10367;52.202;5.996;2023-02-15T07:51:39;50.23;;;18.80;;
20415;SDS011;10367;52.202;5.996;2023-02-15T07:54:08;42.97;;;17.97;;
20415;SDS011;10367;52.202;5.996;2023-02-15T07:56:37;47.67;;;18.70;;
20415;SDS011;10367;52.202;5.996;2023-02-15T07:59:06;45.33;;;17.93;;
20415;SDS011;10367;52.202;5.996;2023-02-15T08:01:36;54.13;;;20.67;;
20415;SDS011;10367;52.202;5.996;2023-02-15T08:04:07;53.60;;;19.23;;
20415;SDS011;10367;52.202;5.996;2023-02-15T08:06:39;51.47;;;20.03;;
20415;SDS011;10367;52.202;5.996;2023-02-15T08:09:08;44.00;;;18.17;;
20415;SDS011;10367;52.202;5.996;2023-02-15T08:11:37;29.57;;;15.53;;
20415;SDS011;10367;52.202;5.996;2023-02-15T08:14:08;43.27;;;17.87;;
20415;SDS011;10367;52.202;5.996;2023-02-15T08:16:38;46.67;;;20.23;;
20415;SDS011;10367;52.202;5.996;2023-02-15T08:19:09;40.03;;;17.43;;
20415;SDS011;10367;52.202;5.996;2023-02-15T08:21:41;50.07;;;18.63;;
20415;SDS011;10367;52.202;5.996;2023-02-15T08:24:12;39.10;;;16.77;;
20415;SDS011;10367;52.202;5.996;2023-02-15T08:26:42;46.03;;;19.43;;
20415;SDS011;10367;52.202;5.996;2023-02-15T08:29:12;53.17;;;21.67;;
20415;SDS011;10367;52.202;5.996;2023-02-15T08:31:42;43.70;;;19.73;;
20415;SDS011;10367;52.202;5.996;2023-02-15T08:34:13;47.60;;;20.30;;
20415;SDS011;10367;52.202;5.996;2023-02-15T08:36:44;54.93;;;21.53;;
20415;SDS011;10367;52.202;5.996;2023-02-15T08:39:14;51.33;;;20.93;;
20415;SDS011;10367;52.202;5.996;2023-02-15T08:41:43;46.97;;;19.33;;
20415;SDS011;10367;52.202;5.996;2023-02-15T08:44:14;45.33;;;20.93;;
20415;SDS011;10367;52.202;5.996;2023-02-15T08:46:44;58.83;;;22.87;;
20415;SDS011;10367;52.202;5.996;2023-02-15T08:49:15;37.77;;;17.50;;
20415;SDS011;10367;52.202;5.996;2023-02-15T08:51:47;45.93;;;22.90;;
20415;SDS011;10367;52.202;5.996;2023-02-15T08:54:17;59.53;;;23.93;;
20415;SDS011;10367;52.202;5.996;2023-02-15T08:56:48;53.50;;;23.63;;
20415;SDS011;10367;52.202;5.996;2023-02-15T08:59:18;41.47;;;17.63;;
20415;SDS011;10367;52.202;5.996;2023-02-15T09:01:49;57.00;;;23.03;;
20415;SDS011;10367;52.202;5.996;2023-02-15T09:04:19;60.30;;;24.97;;
20415;SDS011;10367;52.202;5.996;2023-02-15T09:06:51;60.97;;;25.57;;
20415;SDS011;10367;52.202;5.996;2023-02-15T09:09:20;58.17;;;26.87;;
20415;SDS011;10367;52.202;5.996;2023-02-15T09:11:50;59.10;;;25.03;;
20415;SDS011;10367;52.202;5.996;2023-02-15T09:14:25;71.43;;;28.90;;
20415;SDS011;10367;52.202;5.996;2023-02-15T09:16:54;47.37;;;20.67;;
20415;SDS011;10367;52.202;5.996;2023-02-15T09:19:23;64.83;;;26.17;;
20415;SDS011;10367;52.202;5.996;2023-02-15T09:21:54;58.63;;;24.60;;
20415;SDS011;10367;52.202;5.996;2023-02-15T09:24:22;60.57;;;25.83;;
20415;SDS011;10367;52.202;5.996;2023-02-15T09:26:51;53.83;;;24.27;;
20415;SDS011;10367;52.202;5.996;2023-02-15T09:29:19;52.30;;;22.70;;
20415;SDS011;10367;52.202;5.996;2023-02-15T09:31:50;53.87;;;23.80;;
20415;SDS011;10367;52.202;5.996;2023-02-15T09:34:20;57.50;;;24.17;;
20415;SDS011;10367;52.202;5.996;2023-02-15T09:36:50;65.10;;;27.23;;
20415;SDS011;10367;52.202;5.996;2023-02-15T09:39:21;60.20;;;23.97;;
20415;SDS011;10367;52.202;5.996;2023-02-15T09:42:13;62.23;;;26.07;;
20415;SDS011;10367;52.202;5.996;2023-02-15T09:48:01;51.47;;;25.07;;
20415;SDS011;10367;52.202;5.996;2023-02-15T09:50:56;55.23;;;23.40;;
20415;SDS011;10367;52.202;5.996;2023-02-15T09:53:41;47.50;;;21.90;;
20415;SDS011;10367;52.202;5.996;2023-02-15T09:56:26;61.80;;;24.53;;
20415;SDS011;10367;52.202;5.996;2023-02-15T09:59:05;30.77;;;16.67;;
20415;SDS011;10367;52.202;5.996;2023-02-15T10:01:44;59.63;;;26.23;;
20415;SDS011;10367;52.202;5.996;2023-02-15T10:07:42;61.53;;;23.90;;
20415;SDS011;10367;52.202;5.996;2023-02-15T10:10:24;65.47;;;26.90;;
20415;SDS011;10367;52.202;5.996;2023-02-15T10:13:08;51.87;;;24.83;;
20415;SDS011;10367;52.202;5.996;2023-02-15T10:15:50;48.70;;;23.53;;
20415;SDS011;10367;52.202;5.996;2023-02-15T10:18:31;48.60;;;21.90;;
20415;SDS011;10367;52.202;5.996;2023-02-15T10:21:10;47.73;;;22.67;;
20415;SDS011;10367;52.202;5.996;2023-02-15T10:23:51;50.23;;;23.07;;
20415;SDS011;10367;52.202;5.996;2023-02-15T10:26:37;50.23;;;23.30;;
20415;SDS011;10367;52.202;5.996;2023-02-15T10:29:15;35.53;;;18.80;;
20415;SDS011;10367;52.202;5.996;2023-02-15T10:31:55;55.90;;;25.67;;
20415;SDS011;10367;52.202;5.996;2023-02-15T10:34:32;58.23;;;27.83;;
20415;SDS011;10367;52.202;5.996;2023-02-15T10:37:13;40.37;;;20.23;;
20415;SDS011;10367;52.202;5.996;2023-02-15T10:39:53;42.47;;;20.43;;
20415;SDS011;10367;52.202;5.996;2023-02-15T10:42:30;61.43;;;28.70;;
20415;SDS011;10367;52.202;5.996;2023-02-15T10:45:14;45.20;;;22.30;;
20415;SDS011;10367;52.202;5.996;2023-02-15T10:47:55;46.77;;;23.67;;
20415;SDS011;10367;52.202;5.996;2023-02-15T10:50:46;50.63;;;24.27;;
20415;SDS011;10367;52.202;5.996;2023-02-15T10:53:21;37.80;;;19.80;;
20415;SDS011;10367;52.202;5.996;2023-02-15T10:56:10;51.27;;;24.90;;
20415;SDS011;10367;52.202;5.996;2023-02-15T10:58:50;40.53;;;21.63;;
20415;SDS011;10367;52.202;5.996;2023-02-15T11:01:30;49.10;;;22.90;;
20415;SDS011;10367;52.202;5.996;2023-02-15T11:04:09;45.93;;;21.73;;
20415;SDS011;10367;52.202;5.996;2023-02-15T11:06:56;40.17;;;20.93;;
20415;SDS011;10367;52.202;5.996;2023-02-15T11:09:29;51.87;;;24.93;;
20415;SDS011;10367;52.202;5.996;2023-02-15T11:12:07;35.90;;;19.43;;
20415;SDS011;10367;52.202;5.996;2023-02-15T11:14:41;44.77;;;22.57;;
20415;SDS011;10367;52.202;5.996;2023-02-15T11:17:16;37.97;;;20.80;;
20415;SDS011;10367;52.202;5.996;2023-02-15T11:19:51;38.70;;;19.43;;
20415;SDS011;10367;52.202;5.996;2023-02-15T11:22:25;46.27;;;21.80;;
20415;SDS011;10367;52.202;5.996;2023-02-15T11:24:53;37.37;;;21.30;;
20415;SDS011;10367;52.202;5.996;2023-02-15T11:27:25;40.73;;;21.23;;
20415;SDS011;10367;52.202;5.996;2023-02-15T11:29:58;32.00;;;19.63;;
20415;SDS011;10367;52.202;5.996;2023-02-15T11:32:32;42.60;;;21.67;;
20415;SDS011;10367;52.202;5.996;2023-02-15T11:35:03;41.97;;;21.33;;
20415;SDS011;10367;52.202;5.996;2023-02-15T11:37:40;33.83;;;19.77;;
20415;SDS011;10367;52.202;5.996;2023-02-15T11:40:19;35.67;;;22.97;;
20415;SDS011;10367;52.202;5.996;2023-02-15T11:42:53;37.50;;;21.77;;
20415;SDS011;10367;52.202;5.996;2023-02-15T11:45:26;52.07;;;24.27;;
20415;SDS011;10367;52.202;5.996;2023-02-15T11:47:58;34.20;;;19.93;;
20415;SDS011;10367;52.202;5.996;2023-02-15T11:50:28;44.87;;;23.33;;
20415;SDS011;10367;52.202;5.996;2023-02-15T11:53:00;41.63;;;20.37;;
20415;SDS011;10367;52.202;5.996;2023-02-15T11:55:30;39.07;;;22.67;;
20415;SDS011;10367;52.202;5.996;2023-02-15T11:58:02;38.43;;;22.53;;
20415;SDS011;10367;52.202;5.996;2023-02-15T12:00:36;42.50;;;22.97;;
20415;SDS011;10367;52.202;5.996;2023-02-15T12:03:11;45.20;;;22.10;;
20415;SDS011;10367;52.202;5.996;2023-02-15T12:05:44;34.83;;;21.83;;
20415;SDS011;10367;52.202;5.996;2023-02-15T12:08:16;41.20;;;23.90;;
20415;SDS011;10367;52.202;5.996;2023-02-15T12:10:53;45.30;;;21.93;;
20415;SDS011;10367;52.202;5.996;2023-02-15T12:13:26;49.97;;;26.10;;
20415;SDS011;10367;52.202;5.996;2023-02-15T12:15:57;41.10;;;21.83;;
20415;SDS011;10367;52.202;5.996;2023-02-15T12:18:37;44.80;;;23.83;;
20415;SDS011;10367;52.202;5.996;2023-02-15T12:21:08;40.67;;;22.73;;
20415;SDS011;10367;52.202;5.996;2023-02-15T12:23:43;36.70;;;22.43;;
20415;SDS011;10367;52.202;5.996;2023-02-15T12:26:22;36.83;;;22.13;;
20415;SDS011;10367;52.202;5.996;2023-02-15T12:28:52;34.30;;;22.67;;
20415;SDS011;10367;52.202;5.996;2023-02-15T12:31:26;44.77;;;24.30;;
20415;SDS011;10367;52.202;5.996;2023-02-15T12:34:02;36.13;;;21.60;;
20415;SDS011;10367;52.202;5.996;2023-02-15T12:36:40;39.43;;;23.77;;
20415;SDS011;10367;52.202;5.996;2023-02-15T12:39:19;33.73;;;22.20;;
20415;SDS011;10367;52.202;5.996;2023-02-15T12:42:02;37.10;;;22.47;;
20415;SDS011;10367;52.202;5.996;2023-02-15T12:44:34;50.83;;;26.07;;
20415;SDS011;10367;52.202;5.996;2023-02-15T12:47:04;35.30;;;22.30;;
20415;SDS011;10367;52.202;5.996;2023-02-15T12:49:35;43.50;;;25.33;;
20415;SDS011;10367;52.202;5.996;2023-02-15T12:52:05;39.53;;;24.33;;
20415;SDS011;10367;52.202;5.996;2023-02-15T12:54:50;38.10;;;23.20;;
20415;SDS011;10367;52.202;5.996;2023-02-15T12:57:23;33.40;;;22.50;;
20415;SDS011;10367;52.202;5.996;2023-02-15T12:59:54;38.60;;;22.97;;
20415;SDS011;10367;52.202;5.996;2023-02-15T13:02:26;48.30;;;27.63;;
20415;SDS011;10367;52.202;5.996;2023-02-15T13:05:04;41.50;;;25.03;;
20415;SDS011;10367;52.202;5.996;2023-02-15T13:07:44;41.63;;;25.00;;
20415;SDS011;10367;52.202;5.996;2023-02-15T13:10:24;37.57;;;24.60;;
20415;SDS011;10367;52.202;5.996;2023-02-15T13:12:55;43.23;;;25.23;;
20415;SDS011;10367;52.202;5.996;2023-02-15T13:15:25;49.67;;;28.30;;
20415;SDS011;10367;52.202;5.996;2023-02-15T13:17:58;44.70;;;25.83;;
20415;SDS011;10367;52.202;5.996;2023-02-15T13:20:29;43.03;;;26.27;;
20415;SDS011;10367;52.202;5.996;2023-02-15T13:23:01;39.93;;;25.07;;
20415;SDS011;10367;52.202;5.996;2023-02-15T13:25:32;47.53;;;25.77;;
20415;SDS011;10367;52.202;5.996;2023-02-15T13:28:09;37.23;;;24.17;;
20415;SDS011;10367;52.202;5.996;2023-02-15T13:30:43;33.50;;;22.33;;
20415;SDS011;10367;52.202;5.996;2023-02-15T13:33:16;37.20;;;24.30;;
20415;SDS011;10367;52.202;5.996;2023-02-15T13:35:58;35.87;;;22.57;;
20415;SDS011;10367;52.202;5.996;2023-02-15T13:38:45;50.17;;;26.77;;
20415;SDS011;10367;52.202;5.996;2023-02-15T13:41:20;37.17;;;23.97;;
20415;SDS011;10367;52.202;5.996;2023-02-15T13:43:56;36.57;;;23.77;;
20415;SDS011;10367;52.202;5.996;2023-02-15T13:46:36;40.40;;;24.07;;
20415;SDS011;10367;52.202;5.996;2023-02-15T13:49:26;40.67;;;25.10;;
20415;SDS011;10367;52.202;5.996;2023-02-15T13:52:08;38.80;;;23.67;;
20415;SDS011;10367;52.202;5.996;2023-02-15T13:54:52;44.93;;;25.70;;
20415;SDS011;10367;52.202;5.996;2023-02-15T14:00:35;54.77;;;28.73;;
20415;SDS011;10367;52.202;5.996;2023-02-15T14:06:34;42.67;;;25.03;;
20415;SDS011;10367;52.202;5.996;2023-02-15T14:09:20;43.93;;;25.73;;
20415;SDS011;10367;52.202;5.996;2023-02-15T14:12:02;44.57;;;24.93;;
20415;SDS011;10367;52.202;5.996;2023-02-15T14:14:50;43.40;;;26.43;;
20415;SDS011;10367;52.202;5.996;2023-02-15T14:17:37;58.53;;;29.77;;
20415;SDS011;10367;52.202;5.996;2023-02-15T14:20:17;33.73;;;23.30;;
20415;SDS011;10367;52.202;5.996;2023-02-15T14:22:53;48.67;;;26.63;;
20415;SDS011;10367;52.202;5.996;2023-02-15T14:25:35;47.87;;;26.70;;
20415;SDS011;10367;52.202;5.996;2023-02-15T14:28:09;52.73;;;27.87;;
20415;SDS011;10367;52.202;5.996;2023-02-15T14:30:42;53.90;;;28.87;;
20415;SDS011;10367;52.202;5.996;2023-02-15T14:33:23;38.30;;;24.00;;
20415;SDS011;10367;52.202;5.996;2023-02-15T14:36:02;42.17;;;25.63;;
20415;SDS011;10367;52.202;5.996;2023-02-15T14:38:38;44.93;;;26.80;;
20415;SDS011;10367;52.202;5.996;2023-02-15T14:41:18;47.70;;;25.83;;
20415;SDS011;10367;52.202;5.996;2023-02-15T14:43:55;42.83;;;26.63;;
20415;SDS011;10367;52.202;5.996;2023-02-15T14:46:30;48.70;;;27.87;;
20415;SDS011;10367;52.202;5.996;2023-02-15T14:49:05;48.83;;;28.90;;
20415;SDS011;10367;52.202;5.996;2023-02-15T14:51:54;53.73;;;28.40;;
20415;SDS011;10367;52.202;5.996;2023-02-15T14:57:29;45.47;;;27.27;;
20415;SDS011;10367;52.202;5.996;2023-02-15T15:03:01;41.87;;;26.77;;
20415;SDS011;10367;52.202;5.996;2023-02-15T15:05:47;50.27;;;26.10;;
20415;SDS011;10367;52.202;5.996;2023-02-15T15:08:26;39.47;;;25.30;;
20415;SDS011;10367;52.202;5.996;2023-02-15T15:14:13;44.33;;;26.73;;
20415;SDS011;10367;52.202;5.996;2023-02-15T15:17:12;57.47;;;30.70;;
20415;SDS011;10367;52.202;5.996;2023-02-15T15:20:05;54.43;;;28.03;;
20415;SDS011;10367;52.202;5.996;2023-02-15T15:22:40;51.13;;;29.13;;
20415;SDS011;10367;52.202;5.996;2023-02-15T15:31:20;46.93;;;27.87;;
20415;SDS011;10367;52.202;5.996;2023-02-15T15:43:24;55.97;;;28.17;;
20415;SDS011;10367;52.202;5.996;2023-02-15T15:46:42;59.27;;;29.23;;